createdAt,value
2017-09-23T00:00:51.157Z,12.60
2017-09-23T00:03:18.634Z,12.50
2017-09-23T00:05:46.861Z,12.60
2017-09-23T00:08:14.339Z,12.50
2017-09-23T00:10:41.822Z,12.60
2017-09-23T00:13:10.048Z,12.60
2017-09-23T00:15:37.546Z,12.50
2017-09-23T00:18:05.004Z,12.60
2017-09-23T00:20:33.262Z,12.50
2017-09-23T00:23:00.738Z,12.40
2017-09-23T00:25:28.209Z,12.50
2017-09-23T00:27:56.446Z,12.50
2017-09-23T00:30:23.914Z,12.40
2017-09-23T00:32:51.386Z,12.40
2017-09-23T00:35:19.634Z,12.40
2017-09-23T00:37:47.105Z,12.30
2017-09-23T00:40:14.581Z,12.40
2017-09-23T00:42:42.817Z,12.40
2017-09-23T00:45:10.301Z,12.40
2017-09-23T00:47:38.532Z,12.40
2017-09-23T00:50:06.011Z,12.40
2017-09-23T00:52:33.476Z,12.40
2017-09-23T00:55:00.947Z,12.40
2017-09-23T00:57:29.209Z,12.30
2017-09-23T00:59:56.672Z,12.20
2017-09-23T01:02:24.149Z,12.30
2017-09-23T01:04:52.394Z,12.20
2017-09-23T01:07:19.869Z,12.20
2017-09-23T01:09:48.116Z,12.20
2017-09-23T01:12:15.590Z,12.20
2017-09-23T01:14:43.052Z,12.20
2017-09-23T01:17:11.309Z,12.10
2017-09-23T01:19:38.781Z,12.10
2017-09-23T01:22:06.261Z,12.00
2017-09-23T01:24:34.501Z,12.00
2017-09-23T01:27:01.998Z,12.00
2017-09-23T01:29:30.230Z,12.10
2017-09-23T01:31:57.706Z,12.00
2017-09-23T01:34:25.949Z,12.00
2017-09-23T01:36:53.424Z,11.90
2017-09-23T01:39:20.896Z,12.00
2017-09-23T01:41:49.149Z,12.00
2017-09-23T01:44:16.617Z,12.00
2017-09-23T01:46:44.120Z,12.00
2017-09-23T01:49:11.692Z,12.00
2017-09-23T01:51:39.161Z,11.90
2017-09-23T01:54:06.641Z,11.90
2017-09-23T01:56:34.114Z,11.90
2017-09-23T01:59:02.370Z,12.00
2017-09-23T02:01:29.837Z,11.90
2017-09-23T02:03:57.316Z,11.90
2017-09-23T02:06:25.549Z,11.70
2017-09-23T02:08:53.048Z,11.70
2017-09-23T02:11:21.274Z,11.70
2017-09-23T02:13:48.745Z,11.60
2017-09-23T02:16:16.220Z,11.70
2017-09-23T02:18:43.713Z,11.80
2017-09-23T02:21:11.189Z,11.90
2017-09-23T02:23:38.670Z,11.80
2017-09-23T02:26:06.149Z,11.80
2017-09-23T02:28:33.610Z,11.70
2017-09-23T02:31:01.151Z,11.60
2017-09-23T02:33:28.595Z,11.70
2017-09-23T02:35:56.861Z,11.70
2017-09-23T02:38:24.333Z,11.70
2017-09-23T02:40:51.810Z,11.70
2017-09-23T02:43:19.366Z,11.70
2017-09-23T02:45:46.845Z,11.70
2017-09-23T02:48:15.076Z,11.60
2017-09-23T02:50:42.548Z,11.50
2017-09-23T02:53:10.025Z,11.60
2017-09-23T02:55:38.266Z,11.50
2017-09-23T02:58:05.839Z,11.50
2017-09-23T03:00:33.309Z,11.50
2017-09-23T03:03:01.548Z,11.40
2017-09-23T03:05:29.026Z,11.40
2017-09-23T03:07:56.494Z,11.40
2017-09-23T03:10:23.969Z,11.40
2017-09-23T03:12:52.200Z,11.40
2017-09-23T03:15:19.692Z,11.40
2017-09-23T03:17:47.929Z,11.40
2017-09-23T03:20:15.389Z,11.30
2017-09-23T03:22:42.865Z,11.30
2017-09-23T03:25:10.345Z,11.40
2017-09-23T03:27:38.580Z,11.40
2017-09-23T03:30:06.050Z,11.40
2017-09-23T03:32:33.524Z,11.40
2017-09-23T03:35:00.990Z,11.30
2017-09-23T03:37:29.229Z,11.30
2017-09-23T03:39:56.704Z,11.30
2017-09-23T03:42:24.187Z,11.30
2017-09-23T03:44:51.657Z,11.30
2017-09-23T03:47:19.129Z,11.30
2017-09-23T03:49:46.597Z,11.30
2017-09-23T03:52:14.069Z,11.20
2017-09-23T03:54:41.545Z,11.20
2017-09-23T03:57:09.014Z,11.10
2017-09-23T03:59:37.246Z,11.10
2017-09-23T04:02:04.714Z,11.00
2017-09-23T04:04:32.178Z,11.10
2017-09-23T04:06:59.654Z,11.10
2017-09-23T04:09:27.890Z,11.10
2017-09-23T04:11:55.425Z,11.00
2017-09-23T04:14:22.885Z,11.10
2017-09-23T04:16:50.357Z,11.00
2017-09-23T04:19:17.826Z,11.00
2017-09-23T04:21:45.290Z,11.00
2017-09-23T04:24:12.769Z,11.00
2017-09-23T04:26:40.992Z,11.00
2017-09-23T04:29:08.470Z,10.90
2017-09-23T04:31:35.944Z,11.00
2017-09-23T04:34:03.423Z,11.00
2017-09-23T04:36:31.661Z,11.00
2017-09-23T04:38:59.136Z,11.00
2017-09-23T04:41:26.612Z,11.00
2017-09-23T04:43:54.846Z,11.00
2017-09-23T04:46:22.322Z,10.90
2017-09-23T04:48:49.797Z,11.00
2017-09-23T04:51:18.025Z,11.00
2017-09-23T04:53:45.510Z,10.90
2017-09-23T04:56:12.980Z,10.90
2017-09-23T04:58:41.219Z,10.90
2017-09-23T05:01:08.685Z,10.90
2017-09-23T05:03:36.158Z,10.80
2017-09-23T05:06:03.613Z,10.80
2017-09-23T05:08:31.081Z,10.80
2017-09-23T05:10:59.313Z,10.90
2017-09-23T05:13:26.789Z,10.80
2017-09-23T05:15:54.248Z,10.90
2017-09-23T05:18:21.732Z,10.80
2017-09-23T05:20:49.971Z,10.90
2017-09-23T05:23:17.541Z,10.80
2017-09-23T05:25:45.101Z,10.90
2017-09-23T05:28:12.598Z,10.90
2017-09-23T05:30:40.112Z,10.90
2017-09-23T05:33:07.673Z,11.00
2017-09-23T05:35:35.142Z,11.00
2017-09-23T05:38:02.611Z,11.00
2017-09-23T05:40:30.857Z,10.90
2017-09-23T05:42:58.317Z,10.90
2017-09-23T05:45:25.797Z,10.90
2017-09-23T05:47:54.052Z,10.90
2017-09-23T05:50:21.609Z,10.90
2017-09-23T05:52:49.742Z,11.00
2017-09-23T05:55:17.205Z,11.10
2017-09-23T05:57:44.759Z,11.20
2017-09-23T06:00:12.282Z,11.20
2017-09-23T06:02:40.518Z,11.40
2017-09-23T06:05:08.110Z,11.30
2017-09-23T06:07:36.423Z,11.60
2017-09-23T06:10:03.904Z,11.50
2017-09-23T06:12:31.376Z,11.70
2017-09-23T06:14:58.847Z,11.90
2017-09-23T06:17:27.087Z,12.20
2017-09-23T06:19:54.626Z,12.10
2017-09-23T06:22:22.094Z,12.30
2017-09-23T06:24:49.560Z,12.50
2017-09-23T06:27:17.025Z,12.60
2017-09-23T06:29:44.505Z,12.70
2017-09-23T06:32:12.801Z,12.90
2017-09-23T06:34:40.333Z,12.80
2017-09-23T06:37:07.805Z,13.00
2017-09-23T06:39:35.261Z,13.00
2017-09-23T06:42:03.501Z,13.20
2017-09-23T06:44:30.977Z,13.10
2017-09-23T06:46:58.460Z,13.20
2017-09-23T06:49:26.689Z,13.50
2017-09-23T06:51:54.161Z,13.40
2017-09-23T06:54:21.716Z,13.60
2017-09-23T06:56:49.192Z,13.70
2017-09-23T06:59:17.430Z,13.90
2017-09-23T07:01:44.914Z,13.80
2017-09-23T07:04:12.389Z,13.90
2017-09-23T07:06:40.702Z,14.10
2017-09-23T07:09:08.182Z,14.00
2017-09-23T07:11:35.661Z,14.10
2017-09-23T07:14:03.137Z,14.10
2017-09-23T07:16:31.397Z,14.20
2017-09-23T07:18:59.643Z,14.20
2017-09-23T07:21:27.125Z,14.20
2017-09-23T07:23:54.741Z,14.20
2017-09-23T07:26:22.253Z,14.30
2017-09-23T07:28:49.730Z,14.30
2017-09-23T07:31:17.193Z,14.40
2017-09-23T07:33:44.660Z,14.40
2017-09-23T07:36:12.133Z,14.50
2017-09-23T07:38:39.596Z,14.50
2017-09-23T07:41:07.062Z,14.70
2017-09-23T07:43:34.598Z,14.80
2017-09-23T07:46:02.097Z,14.90
2017-09-23T07:48:29.564Z,15.10
2017-09-23T07:50:57.032Z,15.20
2017-09-23T07:53:25.293Z,15.60
2017-09-23T07:55:52.771Z,15.50
2017-09-23T07:58:21.002Z,15.90
2017-09-23T08:00:48.473Z,15.80
2017-09-23T08:03:15.942Z,15.90
2017-09-23T08:05:45.093Z,16.00
2017-09-23T08:08:14.101Z,15.90
2017-09-23T08:10:41.576Z,16.00
2017-09-23T08:13:09.038Z,16.10
2017-09-23T08:15:36.593Z,16.10
2017-09-23T08:18:04.146Z,16.20
2017-09-23T08:20:31.712Z,16.30
2017-09-23T08:22:59.269Z,16.40
2017-09-23T08:25:26.839Z,16.50
2017-09-23T08:27:55.064Z,16.80
2017-09-23T08:30:22.570Z,16.70
2017-09-23T08:32:51.051Z,16.80
2017-09-23T08:35:19.326Z,16.70
2017-09-23T08:37:46.781Z,16.70
2017-09-23T08:40:15.014Z,16.80
2017-09-23T08:42:42.489Z,16.80
2017-09-23T08:45:10.057Z,17.00
2017-09-23T08:47:37.602Z,17.00
2017-09-23T08:50:05.177Z,17.00
2017-09-23T08:52:32.646Z,17.00
2017-09-23T08:55:00.964Z,17.20
2017-09-23T08:57:28.429Z,17.10
2017-09-23T08:59:55.893Z,17.20
2017-09-23T09:02:23.373Z,17.20
2017-09-23T09:04:50.833Z,17.20
2017-09-23T09:07:18.324Z,17.30
2017-09-23T09:09:46.565Z,17.30
2017-09-23T09:12:14.084Z,17.20
2017-09-23T09:14:41.534Z,17.40
2017-09-23T09:17:08.996Z,17.40
2017-09-23T09:19:36.716Z,17.50
2017-09-23T09:22:04.957Z,17.60
2017-09-23T09:24:32.417Z,17.50
2017-09-23T09:26:59.880Z,17.60
2017-09-23T09:29:27.336Z,17.50
2017-09-23T09:31:54.801Z,17.50
2017-09-23T09:34:22.259Z,17.50
2017-09-23T09:36:50.493Z,17.70
2017-09-23T09:39:17.953Z,17.60
2017-09-23T09:41:45.406Z,17.70
2017-09-23T09:44:12.869Z,17.80
2017-09-23T09:46:40.359Z,18.00
2017-09-23T09:49:07.875Z,18.20
2017-09-23T09:51:35.372Z,18.20
2017-09-23T09:54:04.425Z,18.30
2017-09-23T09:56:31.886Z,18.30
2017-09-23T09:58:59.374Z,18.60
2017-09-23T10:01:26.843Z,18.60
2017-09-23T10:03:54.298Z,18.70
2017-09-23T10:06:23.579Z,18.80
2017-09-23T10:08:51.216Z,18.80
2017-09-23T10:11:18.673Z,18.90
2017-09-23T10:13:46.170Z,18.90
2017-09-23T10:16:14.501Z,19.00
2017-09-23T10:18:42.009Z,18.90
2017-09-23T10:21:09.516Z,19.00
2017-09-23T10:23:36.981Z,18.90
2017-09-23T10:26:04.457Z,18.80
2017-09-23T10:28:31.913Z,18.60
2017-09-23T10:30:59.397Z,18.70
2017-09-23T10:33:27.013Z,18.80
2017-09-23T10:35:54.505Z,18.90
2017-09-23T10:38:23.504Z,18.90
2017-09-23T10:40:51.060Z,18.90
2017-09-23T10:43:18.554Z,19.10
2017-09-23T10:45:46.033Z,19.10
2017-09-23T10:48:13.490Z,19.10
2017-09-23T10:50:40.952Z,19.20
2017-09-23T10:53:08.410Z,18.90
2017-09-23T10:55:35.873Z,18.60
2017-09-23T10:58:03.411Z,18.50
2017-09-23T11:00:30.880Z,18.60
2017-09-23T11:02:58.345Z,18.80
2017-09-23T11:05:25.886Z,18.90
2017-09-23T11:07:53.347Z,18.80
2017-09-23T11:10:20.817Z,18.80
2017-09-23T11:12:48.275Z,18.80
2017-09-23T11:15:15.761Z,18.70
2017-09-23T11:17:43.312Z,18.80
2017-09-23T11:20:10.766Z,18.90
2017-09-23T11:22:38.241Z,18.60
2017-09-23T11:25:06.473Z,18.50
2017-09-23T11:27:33.958Z,18.40
2017-09-23T11:30:01.524Z,18.30
2017-09-23T11:32:28.993Z,18.20
2017-09-23T11:34:57.305Z,18.10
2017-09-23T11:37:25.535Z,18.10
2017-09-23T11:39:53.073Z,18.10
2017-09-23T11:42:20.623Z,18.00
2017-09-23T11:44:48.105Z,17.90
2017-09-23T11:47:15.580Z,17.70
2017-09-23T11:49:43.853Z,17.70
2017-09-23T11:52:12.132Z,17.80
2017-09-23T11:54:40.384Z,18.00
2017-09-23T11:57:07.949Z,17.90
2017-09-23T11:59:35.506Z,18.00
2017-09-23T12:02:03.774Z,18.20
2017-09-23T12:04:31.345Z,18.10
2017-09-23T12:06:58.894Z,18.20
2017-09-23T12:09:27.857Z,18.30
2017-09-23T12:11:55.397Z,18.30
2017-09-23T12:14:22.851Z,18.20
2017-09-23T12:16:50.412Z,18.20
2017-09-23T12:19:17.865Z,18.10
2017-09-23T12:21:45.427Z,18.10
2017-09-23T12:24:12.881Z,18.20
2017-09-23T12:26:40.442Z,18.20
2017-09-23T12:29:08.011Z,18.20
2017-09-23T12:31:35.469Z,18.20
2017-09-23T12:34:02.964Z,18.10
2017-09-23T12:36:30.529Z,18.10
2017-09-23T12:38:57.986Z,18.10
2017-09-23T12:41:25.534Z,18.10
2017-09-23T12:43:53.809Z,17.70
2017-09-23T12:46:22.095Z,17.40
2017-09-23T12:48:49.642Z,17.40
2017-09-23T12:51:17.117Z,17.30
2017-09-23T12:53:44.576Z,17.20
2017-09-23T12:56:12.825Z,17.30
2017-09-23T12:58:40.282Z,17.30
2017-09-23T13:01:13.483Z,17.40
2017-09-23T13:03:40.945Z,17.50
2017-09-23T13:06:09.985Z,17.60
2017-09-23T13:08:37.493Z,17.60
2017-09-23T13:11:04.980Z,17.70
2017-09-23T13:13:32.429Z,17.70
2017-09-23T13:16:00.732Z,17.60
2017-09-23T13:18:28.291Z,17.50
2017-09-23T13:20:55.821Z,17.60
2017-09-23T13:23:24.085Z,17.40
2017-09-23T13:25:52.326Z,17.40
2017-09-23T13:28:19.857Z,17.30
2017-09-23T13:30:47.313Z,17.30
2017-09-23T13:33:14.821Z,17.30
2017-09-23T13:35:42.274Z,17.40
2017-09-23T13:38:09.737Z,17.40
2017-09-23T13:40:37.232Z,17.40
2017-09-23T13:43:04.698Z,17.30
2017-09-23T13:45:32.156Z,17.20
2017-09-23T13:47:59.629Z,17.20
2017-09-23T13:50:27.096Z,17.30
2017-09-23T13:52:54.679Z,17.30
2017-09-23T13:55:22.241Z,17.30
2017-09-23T13:57:49.710Z,17.40
2017-09-23T14:00:17.934Z,17.50
2017-09-23T14:02:45.412Z,17.40
2017-09-23T14:05:12.890Z,17.50
2017-09-23T14:07:40.357Z,17.40
2017-09-23T14:10:08.585Z,17.20
2017-09-23T14:12:36.066Z,17.20
2017-09-23T14:15:03.625Z,17.30
2017-09-23T14:17:31.105Z,17.30
2017-09-23T14:19:59.343Z,17.20
2017-09-23T14:22:26.945Z,17.20
2017-09-23T14:24:54.408Z,17.30
2017-09-23T14:27:21.926Z,17.30
2017-09-23T14:29:50.212Z,17.30
2017-09-23T14:32:18.526Z,17.20
2017-09-23T14:34:46.006Z,17.10
2017-09-23T14:37:13.506Z,17.10
2017-09-23T14:39:40.964Z,17.00
2017-09-23T14:42:08.429Z,17.00
2017-09-23T14:44:36.657Z,17.10
2017-09-23T14:47:04.109Z,17.10
2017-09-23T14:49:31.601Z,17.10
2017-09-23T14:51:59.071Z,17.00
2017-09-23T14:54:27.297Z,17.10
2017-09-23T14:56:54.761Z,17.00
2017-09-23T14:59:22.232Z,17.00
2017-09-23T15:01:49.693Z,17.00
2017-09-23T15:04:17.261Z,17.00
2017-09-23T15:06:44.810Z,17.00
2017-09-23T15:09:12.285Z,17.00
2017-09-23T15:11:40.603Z,16.80
2017-09-23T15:14:08.106Z,16.80
2017-09-23T15:16:35.565Z,16.90
2017-09-23T15:19:03.029Z,16.80
2017-09-23T15:21:31.297Z,16.80
2017-09-23T15:24:00.314Z,16.70
2017-09-23T15:26:27.746Z,16.70
2017-09-23T15:28:55.221Z,16.80
2017-09-23T15:31:23.514Z,16.90
2017-09-23T15:33:51.067Z,16.90
2017-09-23T15:36:18.695Z,16.90
2017-09-23T15:38:46.250Z,17.00
2017-09-23T15:41:13.716Z,17.00
2017-09-23T15:43:41.221Z,17.00
2017-09-23T15:46:08.703Z,16.90
2017-09-23T15:48:36.238Z,16.80
2017-09-23T15:51:03.697Z,16.70
2017-09-23T15:53:31.189Z,16.70
2017-09-23T15:55:58.811Z,16.60
2017-09-23T15:58:26.277Z,16.60
2017-09-23T16:00:53.761Z,16.60
2017-09-23T16:03:21.999Z,16.50
2017-09-23T16:05:49.456Z,16.50
2017-09-23T16:08:16.925Z,16.50
2017-09-23T16:10:44.416Z,16.60
2017-09-23T16:13:11.967Z,16.50
2017-09-23T16:15:39.538Z,16.50
2017-09-23T16:18:07.522Z,16.50
2017-09-23T16:20:35.747Z,16.50
2017-09-23T16:23:03.231Z,16.40
2017-09-23T16:25:30.693Z,16.50
2017-09-23T16:27:58.244Z,16.40
2017-09-23T16:30:25.804Z,16.40
2017-09-23T16:32:53.266Z,16.40
2017-09-23T16:35:20.730Z,16.40
2017-09-23T16:37:48.995Z,16.30
2017-09-23T16:40:16.548Z,16.20
2017-09-23T16:42:44.032Z,16.20
2017-09-23T16:45:12.267Z,16.10
2017-09-23T16:47:39.845Z,16.00
2017-09-23T16:50:07.312Z,16.00
2017-09-23T16:52:35.583Z,16.00
2017-09-23T16:55:03.064Z,15.90
2017-09-23T16:57:31.307Z,16.00
2017-09-23T16:59:58.858Z,16.00
2017-09-23T17:02:26.421Z,16.00
2017-09-23T17:04:53.981Z,16.00
2017-09-23T17:07:22.961Z,15.90
2017-09-23T17:09:50.544Z,15.90
2017-09-23T17:12:18.102Z,15.90
2017-09-23T17:14:45.564Z,15.80
2017-09-23T17:17:13.817Z,15.70
2017-09-23T17:19:41.297Z,15.70
2017-09-23T17:22:09.530Z,15.60
2017-09-23T17:24:37.001Z,15.50
2017-09-23T17:27:04.498Z,15.50
2017-09-23T17:29:32.749Z,15.40
2017-09-23T17:32:00.361Z,15.40
2017-09-23T17:34:27.828Z,15.50
2017-09-23T17:36:55.374Z,15.50
2017-09-23T17:39:22.873Z,15.60
2017-09-23T17:41:50.436Z,15.60
2017-09-23T17:44:18.001Z,15.60
2017-09-23T17:46:45.465Z,15.60
2017-09-23T17:49:13.717Z,15.60
2017-09-23T17:51:41.280Z,15.60
2017-09-23T17:54:08.757Z,15.60
2017-09-23T17:56:37.022Z,15.60
2017-09-23T17:59:04.498Z,15.60
2017-09-23T18:01:32.750Z,15.70
2017-09-23T18:04:00.306Z,15.70
2017-09-23T18:06:27.881Z,15.70
2017-09-23T18:08:56.121Z,15.60
2017-09-23T18:11:24.736Z,15.60
2017-09-23T18:13:52.389Z,15.60
2017-09-23T18:16:19.949Z,15.60
2017-09-23T18:18:47.513Z,15.60
2017-09-23T18:21:15.086Z,15.60
2017-09-23T18:23:43.345Z,15.50
2017-09-23T18:26:10.899Z,15.40
2017-09-23T18:28:38.380Z,15.40
2017-09-23T18:31:06.651Z,15.40
2017-09-23T18:33:34.889Z,15.40
2017-09-23T18:36:02.372Z,15.40
2017-09-23T18:38:29.857Z,15.40
2017-09-23T18:40:57.333Z,15.40
2017-09-23T18:43:24.799Z,15.30
2017-09-23T18:45:52.295Z,15.40
2017-09-23T18:48:19.850Z,15.30
2017-09-23T18:50:47.329Z,15.30
2017-09-23T18:53:15.566Z,15.20
2017-09-23T18:55:43.050Z,15.20
2017-09-23T18:58:11.328Z,15.20
2017-09-23T19:00:39.645Z,15.20
2017-09-23T19:03:07.106Z,15.10
2017-09-23T19:05:34.606Z,15.10
2017-09-23T19:08:02.081Z,15.10
2017-09-23T19:10:30.373Z,15.00
2017-09-23T19:12:57.951Z,14.90
2017-09-23T19:15:25.416Z,15.00
2017-09-23T19:17:52.878Z,15.00
2017-09-23T19:20:20.425Z,15.00
2017-09-23T19:22:48.190Z,15.00
2017-09-23T19:25:15.653Z,15.00
2017-09-23T19:27:43.130Z,15.00
2017-09-23T19:30:10.604Z,15.00
2017-09-23T19:32:38.080Z,15.00
2017-09-23T19:35:06.321Z,15.00
2017-09-23T19:37:33.798Z,15.00
2017-09-23T19:40:02.067Z,14.90
2017-09-23T19:42:29.633Z,14.90
2017-09-23T19:44:57.106Z,15.00
2017-09-23T19:47:25.345Z,14.90
2017-09-23T19:49:52.812Z,14.80
2017-09-23T19:52:20.290Z,14.90
2017-09-23T19:54:48.552Z,15.00
2017-09-23T19:57:16.021Z,14.90
2017-09-23T19:59:44.286Z,15.00
2017-09-23T20:02:12.557Z,15.10
2017-09-23T20:04:40.033Z,15.00
2017-09-23T20:07:08.289Z,15.10
2017-09-23T20:09:35.769Z,15.10
2017-09-23T20:12:04.122Z,15.10
2017-09-23T20:14:31.598Z,15.00
2017-09-23T20:16:59.833Z,15.00
2017-09-23T20:19:27.307Z,15.00
2017-09-23T20:21:54.773Z,15.00
2017-09-23T20:24:22.276Z,15.00
2017-09-23T20:26:49.786Z,14.90
2017-09-23T20:29:17.262Z,14.90
2017-09-23T20:31:45.533Z,14.70
2017-09-23T20:34:13.767Z,14.70
2017-09-23T20:36:41.300Z,14.70
2017-09-23T20:39:08.772Z,14.80
2017-09-23T20:41:36.237Z,14.80
2017-09-23T20:44:03.817Z,14.80
2017-09-23T20:46:31.298Z,14.80
2017-09-23T20:48:59.541Z,14.70
2017-09-23T20:51:27.014Z,14.60
2017-09-23T20:53:55.339Z,14.70
2017-09-23T20:56:22.809Z,14.60
2017-09-23T20:58:50.288Z,14.60
2017-09-23T21:01:17.752Z,14.70
2017-09-23T21:03:45.231Z,14.70
2017-09-23T21:06:13.483Z,14.70
2017-09-23T21:08:41.045Z,14.60
2017-09-23T21:11:08.518Z,14.70
2017-09-23T21:13:36.769Z,14.70
2017-09-23T21:16:04.251Z,14.60
2017-09-23T21:18:32.494Z,14.70
2017-09-23T21:20:59.969Z,14.60
2017-09-23T21:23:27.445Z,14.60
2017-09-23T21:25:55.686Z,14.60
2017-09-23T21:28:23.148Z,14.50
2017-09-23T21:30:50.648Z,14.60
2017-09-23T21:33:18.172Z,14.60
2017-09-23T21:35:45.649Z,14.70
2017-09-23T21:38:13.885Z,14.80
2017-09-23T21:40:41.470Z,14.70
2017-09-23T21:43:09.733Z,14.70
2017-09-23T21:45:37.204Z,14.70
2017-09-23T21:48:05.448Z,14.70
2017-09-23T21:50:33.020Z,14.60
2017-09-23T21:53:00.581Z,14.60
2017-09-23T21:55:28.061Z,14.60
2017-09-23T21:57:56.308Z,14.50
2017-09-23T22:00:25.305Z,14.50
2017-09-23T22:02:52.773Z,14.50
2017-09-23T22:05:21.040Z,14.50
2017-09-23T22:07:48.514Z,14.50
2017-09-23T22:10:16.773Z,14.50
2017-09-23T22:12:45.152Z,14.50
2017-09-23T22:15:12.629Z,14.50
2017-09-23T22:17:40.881Z,14.50
2017-09-23T22:20:14.038Z,14.50
2017-09-23T22:22:41.499Z,14.50
2017-09-23T22:25:09.084Z,14.50
2017-09-23T22:27:36.564Z,14.40
2017-09-23T22:30:04.819Z,14.40
2017-09-23T22:32:32.288Z,14.40
2017-09-23T22:35:00.530Z,14.40
2017-09-23T22:37:28.007Z,14.30
2017-09-23T22:39:55.627Z,14.40
2017-09-23T22:42:23.102Z,14.40
2017-09-23T22:44:50.592Z,14.40
2017-09-23T22:47:18.144Z,14.40
2017-09-23T22:49:45.604Z,14.40
2017-09-23T22:52:13.852Z,14.40
2017-09-23T22:54:41.330Z,14.40
2017-09-23T22:57:08.883Z,14.40
2017-09-23T22:59:36.440Z,14.30
2017-09-23T23:02:03.926Z,14.30
2017-09-23T23:04:32.341Z,14.40
2017-09-23T23:06:59.849Z,14.30
2017-09-23T23:09:27.307Z,14.40
2017-09-23T23:11:55.566Z,14.40
2017-09-23T23:14:23.047Z,14.30
2017-09-23T23:16:51.321Z,14.40
2017-09-23T23:19:20.560Z,14.40
2017-09-23T23:21:48.860Z,14.40
2017-09-23T23:24:16.336Z,14.40
2017-09-23T23:26:43.905Z,14.40
2017-09-23T23:29:11.374Z,14.40
2017-09-23T23:31:39.690Z,14.40
2017-09-23T23:34:07.177Z,14.30
2017-09-23T23:36:34.742Z,14.40
2017-09-23T23:39:02.206Z,14.40
2017-09-23T23:41:30.428Z,14.50
2017-09-23T23:43:57.902Z,14.40
2017-09-23T23:46:25.372Z,14.40
2017-09-23T23:48:52.845Z,14.40
2017-09-23T23:51:20.396Z,14.40
2017-09-23T23:53:47.953Z,14.40
2017-09-23T23:56:15.408Z,14.50
2017-09-23T23:58:42.882Z,14.50
